createdAt,value
2022-12-06T00:01:20.237Z,11.68
2022-12-06T00:04:11.688Z,10.80
2022-12-06T00:06:58.417Z,6.78
2022-12-06T00:09:43.942Z,8.00
2022-12-06T00:12:29.506Z,8.23
2022-12-06T00:15:15.191Z,7.88
2022-12-06T00:18:00.555Z,7.88
2022-12-06T00:20:45.996Z,7.75
2022-12-06T00:23:31.882Z,6.95
2022-12-06T00:26:17.959Z,6.25
2022-12-06T00:29:04.536Z,8.23
2022-12-06T00:31:51.681Z,9.27
2022-12-06T00:34:37.116Z,6.78
2022-12-06T00:37:22.472Z,6.93
2022-12-06T00:40:08.576Z,7.68
2022-12-06T00:42:54.165Z,10.07
2022-12-06T00:45:39.793Z,6.68
2022-12-06T00:48:25.255Z,7.03
2022-12-06T00:51:11.573Z,7.43
2022-12-06T00:53:57.135Z,5.28
2022-12-06T00:56:42.652Z,5.57
2022-12-06T00:59:28.046Z,5.85
2022-12-06T01:02:13.691Z,6.40
2022-12-06T01:04:59.276Z,6.05
2022-12-06T01:07:44.974Z,5.68
2022-12-06T01:10:30.601Z,6.22
2022-12-06T01:13:16.143Z,6.20
2022-12-06T01:16:14.005Z,7.65
2022-12-06T01:19:02.185Z,6.45
2022-12-06T01:21:48.886Z,6.53
2022-12-06T01:24:34.542Z,9.40
2022-12-06T01:27:19.877Z,7.50
2022-12-06T01:30:06.527Z,6.63
2022-12-06T01:32:51.753Z,4.93
2022-12-06T01:35:41.482Z,5.22
2022-12-06T01:38:26.589Z,6.35
2022-12-06T01:41:12.101Z,5.63
2022-12-06T01:43:58.107Z,5.25
2022-12-06T01:46:45.323Z,6.57
2022-12-06T01:49:35.311Z,5.95
2022-12-06T01:52:25.219Z,6.28
2022-12-06T01:55:12.768Z,5.65
2022-12-06T01:58:03.424Z,5.78
2022-12-06T02:00:48.503Z,6.25
2022-12-06T02:03:34.544Z,5.03
2022-12-06T02:06:20.234Z,7.57
2022-12-06T02:09:07.603Z,6.82
2022-12-06T02:11:52.983Z,10.13
2022-12-06T02:14:38.465Z,5.35
2022-12-06T02:17:42.023Z,5.40
2022-12-06T02:20:35.628Z,6.05
2022-12-06T02:23:49.316Z,6.10
2022-12-06T02:26:58.933Z,6.63
2022-12-06T02:30:18.943Z,4.38
2022-12-06T02:33:08.823Z,4.88
2022-12-06T02:36:19.176Z,5.38
2022-12-06T02:39:23.230Z,5.93
2022-12-06T02:42:29.144Z,6.00
2022-12-06T02:45:21.626Z,8.02
2022-12-06T02:48:08.176Z,5.00
2022-12-06T02:51:00.246Z,6.65
2022-12-06T02:53:49.816Z,4.22
2022-12-06T02:56:35.754Z,5.50
2022-12-06T02:59:21.373Z,4.80
2022-12-06T03:02:11.378Z,5.60
2022-12-06T03:05:18.349Z,6.30
2022-12-06T03:08:11.915Z,4.97
2022-12-06T03:11:01.613Z,4.60
2022-12-06T03:14:04.855Z,4.32
2022-12-06T03:17:16.443Z,5.68
2022-12-06T03:20:09.762Z,4.63
2022-12-06T03:23:02.382Z,6.55
2022-12-06T03:28:37.642Z,4.90
2022-12-06T03:31:25.282Z,6.30
2022-12-06T03:34:17.414Z,4.03
2022-12-06T03:37:05.763Z,5.03
2022-12-06T03:40:09.527Z,3.92
2022-12-06T03:42:56.022Z,4.95
2022-12-06T03:46:05.854Z,4.13
2022-12-06T03:49:01.209Z,3.20
2022-12-06T03:51:47.336Z,3.90
2022-12-06T03:54:32.525Z,5.25
2022-12-06T03:57:17.855Z,3.70
2022-12-06T04:00:06.076Z,2.78
2022-12-06T04:02:56.798Z,5.45
2022-12-06T04:05:42.267Z,3.55
2022-12-06T04:08:27.642Z,4.28
2022-12-06T04:11:13.370Z,4.32
2022-12-06T04:13:58.406Z,3.38
2022-12-06T04:17:02.452Z,3.88
2022-12-06T04:19:51.958Z,3.80
2022-12-06T04:22:56.212Z,5.10
2022-12-06T04:25:41.300Z,4.80
2022-12-06T04:28:45.427Z,6.03
2022-12-06T04:31:50.126Z,4.93
2022-12-06T04:34:54.063Z,3.58
2022-12-06T04:37:57.791Z,3.50
2022-12-06T04:40:43.519Z,3.75
2022-12-06T04:43:44.018Z,4.63
2022-12-06T04:46:30.954Z,3.92
2022-12-06T04:49:15.999Z,3.85
2022-12-06T04:52:02.117Z,3.97
2022-12-06T04:54:47.755Z,2.95
2022-12-06T04:57:33.294Z,3.67
2022-12-06T05:00:18.898Z,3.72
2022-12-06T05:03:04.164Z,3.55
2022-12-06T05:05:50.368Z,3.42
2022-12-06T05:08:35.771Z,4.07
2022-12-06T05:11:21.209Z,3.92
2022-12-06T05:14:06.843Z,3.47
2022-12-06T05:16:52.031Z,4.00
2022-12-06T05:19:37.475Z,3.47
2022-12-06T05:22:23.624Z,3.50
2022-12-06T05:25:09.490Z,3.30
2022-12-06T05:27:54.864Z,4.15
2022-12-06T05:30:40.608Z,4.63
2022-12-06T05:33:25.911Z,3.88
2022-12-06T05:36:18.885Z,3.80
2022-12-06T05:41:49.603Z,4.45
2022-12-06T05:44:35.313Z,3.47
2022-12-06T05:47:20.846Z,4.28
2022-12-06T05:50:06.861Z,3.95
2022-12-06T05:52:56.898Z,3.80
2022-12-06T05:55:42.718Z,2.83
2022-12-06T05:58:27.823Z,3.80
2022-12-06T06:01:13.137Z,3.38
2022-12-06T06:03:58.503Z,3.72
2022-12-06T06:06:43.708Z,2.83
2022-12-06T06:09:29.173Z,3.65
2022-12-06T06:12:14.515Z,3.53
2022-12-06T06:15:00.116Z,2.70
2022-12-06T06:17:45.410Z,3.25
2022-12-06T06:20:31.015Z,3.67
2022-12-06T06:23:16.208Z,3.00
2022-12-06T06:26:10.083Z,3.80
2022-12-06T06:28:55.683Z,2.78
2022-12-06T06:31:41.114Z,3.30
2022-12-06T06:34:26.648Z,2.47
2022-12-06T06:37:11.863Z,4.10
2022-12-06T06:39:57.561Z,4.53
2022-12-06T06:42:42.982Z,4.07
2022-12-06T06:45:29.070Z,3.58
2022-12-06T06:48:14.771Z,3.53
2022-12-06T06:51:12.895Z,2.55
2022-12-06T06:53:58.655Z,2.40
2022-12-06T06:56:43.753Z,3.55
2022-12-06T06:59:29.447Z,3.58
2022-12-06T07:02:17.365Z,3.60
2022-12-06T07:05:02.685Z,2.90
2022-12-06T07:07:49.119Z,3.47
2022-12-06T07:10:34.899Z,3.28
2022-12-06T07:13:24.523Z,4.38
2022-12-06T07:16:15.752Z,3.22
2022-12-06T07:19:06.140Z,2.97
2022-12-06T07:21:54.155Z,5.00
2022-12-06T07:24:42.902Z,4.70
2022-12-06T07:27:32.983Z,4.30
2022-12-06T07:30:21.616Z,3.53
2022-12-06T07:33:10.991Z,4.60
2022-12-06T07:36:13.231Z,4.35
2022-12-06T07:39:00.449Z,4.72
2022-12-06T07:42:04.125Z,8.02
2022-12-06T07:45:02.674Z,6.25
2022-12-06T07:47:48.628Z,6.38
2022-12-06T07:50:34.056Z,5.13
2022-12-06T07:53:19.633Z,4.20
2022-12-06T07:56:08.803Z,6.10
2022-12-06T07:58:53.879Z,5.10
2022-12-06T08:01:39.548Z,5.00
2022-12-06T08:04:24.923Z,5.65
2022-12-06T08:07:10.384Z,4.00
2022-12-06T08:09:55.683Z,2.63
2022-12-06T08:12:41.120Z,3.70
2022-12-06T08:15:26.603Z,4.30
2022-12-06T08:18:11.993Z,3.60
2022-12-06T08:20:59.158Z,3.05
2022-12-06T08:23:44.864Z,3.75
2022-12-06T08:26:30.339Z,3.65
2022-12-06T08:29:15.846Z,6.30
2022-12-06T08:32:00.930Z,5.53
2022-12-06T08:34:46.515Z,4.25
2022-12-06T08:37:34.392Z,3.78
2022-12-06T08:40:19.718Z,4.00
2022-12-06T08:43:05.067Z,2.70
2022-12-06T08:45:52.211Z,3.13
2022-12-06T08:48:42.756Z,3.55
2022-12-06T08:51:29.672Z,3.85
2022-12-06T08:54:17.433Z,4.30
2022-12-06T08:57:03.091Z,3.47
2022-12-06T08:59:48.743Z,3.25
2022-12-06T09:02:34.196Z,4.57
2022-12-06T09:05:19.583Z,2.80
2022-12-06T09:08:05.185Z,3.67
2022-12-06T09:10:50.485Z,5.10
2022-12-06T09:13:37.800Z,3.63
2022-12-06T09:16:24.340Z,2.67
2022-12-06T09:19:10.886Z,2.67
2022-12-06T09:21:56.123Z,3.00
2022-12-06T09:24:42.276Z,4.30
2022-12-06T09:27:30.271Z,3.42
2022-12-06T09:30:16.080Z,3.45
2022-12-06T09:33:01.226Z,4.40
2022-12-06T09:35:46.591Z,3.85
2022-12-06T09:38:35.700Z,4.85
2022-12-06T09:41:49.475Z,4.68
2022-12-06T09:45:12.933Z,5.82
2022-12-06T09:48:27.146Z,6.95
2022-12-06T09:51:26.531Z,5.82
2022-12-06T09:54:17.800Z,6.00
2022-12-06T09:57:31.905Z,5.93
2022-12-06T10:00:23.126Z,5.55
2022-12-06T10:03:27.553Z,5.13
2022-12-06T10:06:17.069Z,5.05
2022-12-06T10:09:34.922Z,3.72
2022-12-06T10:12:32.024Z,4.22
2022-12-06T10:15:34.209Z,4.35
2022-12-06T10:18:49.098Z,3.95
2022-12-06T10:22:03.463Z,5.50
2022-12-06T10:24:53.737Z,4.65
2022-12-06T10:27:45.517Z,3.58
2022-12-06T10:30:31.048Z,2.67
2022-12-06T10:33:35.786Z,3.55
2022-12-06T10:37:05.942Z,3.17
2022-12-06T10:40:06.812Z,2.70
2022-12-06T10:43:11.923Z,2.55
2022-12-06T10:46:42.436Z,2.95
2022-12-06T10:49:37.409Z,2.42
2022-12-06T10:52:30.763Z,3.13
2022-12-06T10:55:24.324Z,3.08
2022-12-06T10:58:45.603Z,3.15
2022-12-06T11:01:41.593Z,4.38
2022-12-06T11:04:34.415Z,3.80
2022-12-06T11:10:33.043Z,2.30
2022-12-06T11:13:24.216Z,3.40
2022-12-06T11:16:15.890Z,2.15
2022-12-06T11:19:14.321Z,2.25
2022-12-06T11:22:25.028Z,3.28
2022-12-06T11:25:23.375Z,4.13
2022-12-06T11:28:21.307Z,3.40
2022-12-06T11:31:32.143Z,3.08
2022-12-06T11:34:28.908Z,2.20
2022-12-06T11:37:26.507Z,2.67
2022-12-06T11:40:28.561Z,3.03
2022-12-06T11:43:20.874Z,2.75
2022-12-06T11:46:08.502Z,4.53
2022-12-06T11:48:54.700Z,4.30
2022-12-06T11:51:39.747Z,3.08
2022-12-06T11:54:34.590Z,4.00
2022-12-06T11:57:27.188Z,3.10
2022-12-06T12:00:18.543Z,2.97
2022-12-06T12:03:04.680Z,4.03
2022-12-06T12:05:50.228Z,3.85
2022-12-06T12:08:36.723Z,3.20
2022-12-06T12:11:25.848Z,2.92
2022-12-06T12:14:17.776Z,2.58
2022-12-06T12:17:04.925Z,3.00
2022-12-06T12:19:51.837Z,2.17
2022-12-06T12:22:45.159Z,2.30
2022-12-06T12:25:33.699Z,2.50
2022-12-06T12:28:30.824Z,2.80
2022-12-06T12:31:26.421Z,2.13
2022-12-06T12:34:29.886Z,2.47
2022-12-06T12:37:21.468Z,3.72
2022-12-06T12:40:25.785Z,2.92
2022-12-06T12:43:10.837Z,3.08
2022-12-06T12:46:21.345Z,3.08
2022-12-06T12:49:24.684Z,2.65
2022-12-06T12:52:37.378Z,2.20
2022-12-06T12:55:26.978Z,3.03
2022-12-06T12:58:13.125Z,2.08
2022-12-06T13:01:03.986Z,2.42
2022-12-06T13:03:59.449Z,2.10
2022-12-06T13:07:04.015Z,2.25
2022-12-06T13:10:07.763Z,2.00
2022-12-06T13:13:01.217Z,3.22
2022-12-06T13:15:55.177Z,1.73
2022-12-06T13:18:55.391Z,3.30
2022-12-06T13:21:45.362Z,1.80
2022-12-06T13:24:32.119Z,1.45
2022-12-06T13:27:22.335Z,1.48
2022-12-06T13:30:08.123Z,2.78
2022-12-06T13:33:05.067Z,2.60
2022-12-06T13:35:59.997Z,2.60
2022-12-06T13:38:45.458Z,1.75
2022-12-06T13:41:58.499Z,1.98
2022-12-06T13:44:55.410Z,2.00
2022-12-06T13:47:49.416Z,1.73
2022-12-06T13:50:34.471Z,1.75
2022-12-06T13:53:21.488Z,2.20
2022-12-06T13:56:27.047Z,1.60
2022-12-06T13:59:12.243Z,1.27
2022-12-06T14:01:59.064Z,2.05
2022-12-06T14:04:44.880Z,2.17
2022-12-06T14:07:33.844Z,1.58
2022-12-06T14:10:19.189Z,1.58
2022-12-06T14:13:04.711Z,3.17
2022-12-06T14:15:52.070Z,1.98
2022-12-06T14:18:40.604Z,2.25
2022-12-06T14:21:39.074Z,2.08
2022-12-06T14:24:54.896Z,2.30
2022-12-06T14:27:49.680Z,2.03
2022-12-06T14:30:35.116Z,2.58
2022-12-06T14:33:24.314Z,1.40
2022-12-06T14:36:17.570Z,2.60
2022-12-06T14:39:08.378Z,1.85
2022-12-06T14:42:14.592Z,1.55
2022-12-06T14:45:02.661Z,1.60
2022-12-06T14:47:49.576Z,1.80
2022-12-06T14:50:49.699Z,2.53
2022-12-06T14:53:38.447Z,2.30
2022-12-06T14:56:34.102Z,2.28
2022-12-06T14:59:46.138Z,2.45
2022-12-06T15:02:31.203Z,2.67
2022-12-06T15:05:44.713Z,3.53
2022-12-06T15:08:36.191Z,3.00
2022-12-06T15:11:53.134Z,1.75
2022-12-06T15:14:41.224Z,2.38
2022-12-06T15:17:27.015Z,2.42
2022-12-06T15:20:15.232Z,2.58
2022-12-06T15:23:00.567Z,2.95
2022-12-06T15:25:46.250Z,3.50
2022-12-06T15:28:31.951Z,2.75
2022-12-06T15:31:26.850Z,3.85
2022-12-06T15:34:27.733Z,2.95
2022-12-06T15:37:38.121Z,3.28
2022-12-06T15:40:20.571Z,3.03
2022-12-06T15:43:22.671Z,2.22
2022-12-06T15:46:27.154Z,2.45
2022-12-06T15:49:15.605Z,2.47
2022-12-06T15:52:00.657Z,2.95
2022-12-06T15:54:46.309Z,2.92
2022-12-06T15:57:31.521Z,2.00
2022-12-06T16:00:17.097Z,1.95
2022-12-06T16:03:03.234Z,3.25
2022-12-06T16:05:48.893Z,2.33
2022-12-06T16:08:34.352Z,3.00
2022-12-06T16:11:22.818Z,2.30
2022-12-06T16:14:09.153Z,2.05
2022-12-06T16:16:54.409Z,2.17
2022-12-06T16:19:58.181Z,2.83
2022-12-06T16:23:02.205Z,1.88
2022-12-06T16:25:48.227Z,2.78
2022-12-06T16:28:33.795Z,1.90
2022-12-06T16:31:19.212Z,2.60
2022-12-06T16:34:04.907Z,3.17
2022-12-06T16:36:54.518Z,3.08
2022-12-06T16:39:39.761Z,2.85
2022-12-06T16:42:25.526Z,2.75
2022-12-06T16:45:11.292Z,1.85
2022-12-06T16:47:56.636Z,2.80
2022-12-06T16:50:42.233Z,2.65
2022-12-06T16:53:27.684Z,2.72
2022-12-06T16:56:13.302Z,2.50
2022-12-06T16:58:59.022Z,2.20
2022-12-06T17:01:49.646Z,3.38
2022-12-06T17:04:35.324Z,3.22
2022-12-06T17:07:20.611Z,2.33
2022-12-06T17:10:07.133Z,3.63
2022-12-06T17:12:52.695Z,5.38
2022-12-06T17:15:38.035Z,3.97
2022-12-06T17:18:23.398Z,4.25
2022-12-06T17:21:12.037Z,4.30
2022-12-06T17:24:02.988Z,3.58
2022-12-06T17:26:48.583Z,4.97
2022-12-06T17:29:34.537Z,3.53
2022-12-06T17:32:20.648Z,4.38
2022-12-06T17:35:06.559Z,4.15
2022-12-06T17:37:52.171Z,3.13
2022-12-06T17:40:37.567Z,4.50
2022-12-06T17:43:23.311Z,3.92
2022-12-06T17:46:08.842Z,5.05
2022-12-06T17:48:56.419Z,5.20
2022-12-06T17:51:41.676Z,4.82
2022-12-06T17:54:27.126Z,4.63
2022-12-06T17:57:18.656Z,5.30
2022-12-06T18:00:05.415Z,5.07
2022-12-06T18:02:52.269Z,4.47
2022-12-06T18:05:39.455Z,5.43
2022-12-06T18:08:24.519Z,4.88
2022-12-06T18:11:10.002Z,4.72
2022-12-06T18:13:56.405Z,4.60
2022-12-06T18:16:43.757Z,5.18
2022-12-06T18:19:29.345Z,5.65
2022-12-06T18:22:15.500Z,4.75
2022-12-06T18:25:01.202Z,6.88
2022-12-06T18:27:46.958Z,9.32
2022-12-06T18:30:32.889Z,7.25
2022-12-06T18:33:21.371Z,6.80
2022-12-06T18:36:08.982Z,6.78
2022-12-06T18:39:10.887Z,6.45
2022-12-06T18:41:59.283Z,4.40
2022-12-06T18:44:44.648Z,4.05
2022-12-06T18:47:30.163Z,4.65
2022-12-06T18:50:16.631Z,6.43
2022-12-06T18:53:05.024Z,6.28
2022-12-06T18:55:50.587Z,7.82
2022-12-06T18:58:36.459Z,7.32
2022-12-06T19:01:24.690Z,7.00
2022-12-06T19:04:14.641Z,4.88
2022-12-06T19:07:00.351Z,6.20
2022-12-06T19:09:45.648Z,4.13
2022-12-06T19:12:31.028Z,3.40
2022-12-06T19:15:16.666Z,4.57
2022-12-06T19:18:02.199Z,3.30
2022-12-06T19:20:47.287Z,3.28
2022-12-06T19:23:32.751Z,4.65
2022-12-06T19:26:18.184Z,3.40
2022-12-06T19:29:05.510Z,3.45
2022-12-06T19:31:51.666Z,3.28
2022-12-06T19:34:37.109Z,3.35
2022-12-06T19:37:22.560Z,3.33
2022-12-06T19:40:08.438Z,3.05
2022-12-06T19:43:12.425Z,3.47
2022-12-06T19:46:11.476Z,3.38
2022-12-06T19:48:58.916Z,3.90
2022-12-06T19:51:46.568Z,2.53
2022-12-06T19:54:33.612Z,3.30
2022-12-06T19:57:19.112Z,3.75
2022-12-06T20:00:05.131Z,2.38
2022-12-06T20:02:57.905Z,2.63
2022-12-06T20:05:45.127Z,5.18
2022-12-06T20:08:30.528Z,7.53
2022-12-06T20:11:37.322Z,6.53
2022-12-06T20:14:22.986Z,4.55
2022-12-06T20:17:11.556Z,3.15
2022-12-06T20:20:01.336Z,5.05
2022-12-06T20:22:47.281Z,3.90
2022-12-06T20:25:32.427Z,3.97
2022-12-06T20:28:18.243Z,4.05
2022-12-06T20:31:10.816Z,4.35
2022-12-06T20:34:04.560Z,4.25
2022-12-06T20:36:49.815Z,5.00
2022-12-06T20:39:35.675Z,4.75
2022-12-06T20:42:21.583Z,6.07
2022-12-06T20:45:07.628Z,4.68
2022-12-06T20:47:53.920Z,4.68
2022-12-06T20:50:39.631Z,5.05
2022-12-06T20:53:24.791Z,8.05
2022-12-06T20:56:12.608Z,5.53
2022-12-06T20:58:59.411Z,5.18
2022-12-06T21:01:45.123Z,5.63
2022-12-06T21:04:30.646Z,6.82
2022-12-06T21:07:16.572Z,4.65
2022-12-06T21:10:01.927Z,3.22
2022-12-06T21:12:47.683Z,5.68
2022-12-06T21:15:33.208Z,3.40
2022-12-06T21:18:19.919Z,4.82
2022-12-06T21:21:06.011Z,3.85
2022-12-06T21:23:51.314Z,4.32
2022-12-06T21:26:37.223Z,7.10
2022-12-06T21:29:30.454Z,6.55
2022-12-06T21:32:16.556Z,5.97
2022-12-06T21:35:01.892Z,5.03
2022-12-06T21:37:47.244Z,3.60
2022-12-06T21:40:33.959Z,3.85
2022-12-06T21:43:19.443Z,4.50
2022-12-06T21:46:12.265Z,5.47
2022-12-06T21:48:59.820Z,4.93
2022-12-06T21:51:44.904Z,4.47
2022-12-06T21:54:30.340Z,4.05
2022-12-06T21:57:16.044Z,5.22
2022-12-06T22:00:02.795Z,6.72
2022-12-06T22:02:57.829Z,6.32
2022-12-06T22:05:43.234Z,4.53
2022-12-06T22:08:28.700Z,4.90
2022-12-06T22:11:16.451Z,5.55
2022-12-06T22:14:02.372Z,5.35
2022-12-06T22:16:50.859Z,4.88
2022-12-06T22:19:36.092Z,4.00
2022-12-06T22:22:21.543Z,4.63
2022-12-06T22:25:07.339Z,2.83
2022-12-06T22:27:53.980Z,3.95
2022-12-06T22:30:39.356Z,4.10
2022-12-06T22:33:24.801Z,4.97
2022-12-06T22:36:11.818Z,3.92
2022-12-06T22:38:59.803Z,6.05
2022-12-06T22:41:45.443Z,5.40
2022-12-06T22:44:30.805Z,4.07
2022-12-06T22:47:16.350Z,3.13
2022-12-06T22:50:01.815Z,3.20
2022-12-06T22:52:47.615Z,4.45
2022-12-06T22:55:32.928Z,4.57
2022-12-06T22:58:18.320Z,4.35
2022-12-06T23:01:16.258Z,5.63
2022-12-06T23:04:06.026Z,6.50
2022-12-06T23:06:51.395Z,8.48
2022-12-06T23:09:36.974Z,7.05
2022-12-06T23:12:22.476Z,4.38
2022-12-06T23:15:08.348Z,5.18
2022-12-06T23:17:53.826Z,5.40
2022-12-06T23:20:39.092Z,3.70
2022-12-06T23:23:24.420Z,3.95
2022-12-06T23:26:15.456Z,4.72
2022-12-06T23:29:01.010Z,5.10
2022-12-06T23:31:46.673Z,6.18
2022-12-06T23:34:32.090Z,6.47
2022-12-06T23:37:17.735Z,3.80
2022-12-06T23:40:03.451Z,3.70
2022-12-06T23:42:49.048Z,5.80
2022-12-06T23:45:34.703Z,6.72
2022-12-06T23:48:20.037Z,8.38
2022-12-06T23:51:20.933Z,5.43
2022-12-06T23:54:07.656Z,4.20
2022-12-06T23:56:53.132Z,4.65
2022-12-06T23:59:38.792Z,5.65
